sensor_id;sensor_type;location;lat;lon;timestamp;P1;durP1;ratioP1;P2;durP2;ratioP2
24107;SDS011;12280;51.362;6.694;2022-08-19T00:00:23;1.73;;;1.63;;
24107;SDS011;12280;51.362;6.694;2022-08-19T00:02:49;2.10;;;2.00;;
24107;SDS011;12280;51.362;6.694;2022-08-19T00:05:15;0.50;;;0.50;;
24107;SDS011;12280;51.362;6.694;2022-08-19T00:07:42;2.83;;;2.63;;
24107;SDS011;12280;51.362;6.694;2022-08-19T00:10:09;2.33;;;1.37;;
24107;SDS011;12280;51.362;6.694;2022-08-19T00:12:35;0.53;;;0.53;;
24107;SDS011;12280;51.362;6.694;2022-08-19T00:15:03;1.30;;;1.20;;
24107;SDS011;12280;51.362;6.694;2022-08-19T00:17:29;1.57;;;1.40;;
24107;SDS011;12280;51.362;6.694;2022-08-19T00:19:55;0.70;;;0.70;;
24107;SDS011;12280;51.362;6.694;2022-08-19T00:22:21;2.38;;;2.28;;
24107;SDS011;12280;51.362;6.694;2022-08-19T00:24:47;2.63;;;1.90;;
24107;SDS011;12280;51.362;6.694;2022-08-19T00:27:13;2.90;;;2.70;;
24107;SDS011;12280;51.362;6.694;2022-08-19T00:29:40;3.33;;;1.83;;
24107;SDS011;12280;51.362;6.694;2022-08-19T00:32:06;0.50;;;0.50;;
24107;SDS011;12280;51.362;6.694;2022-08-19T00:34:32;2.87;;;2.67;;
24107;SDS011;12280;51.362;6.694;2022-08-19T00:36:58;1.30;;;1.20;;
24107;SDS011;12280;51.362;6.694;2022-08-19T00:39:24;1.63;;;1.37;;
24107;SDS011;12280;51.362;6.694;2022-08-19T00:41:50;5.87;;;2.03;;
24107;SDS011;12280;51.362;6.694;2022-08-19T00:44:26;1.27;;;1.27;;
24107;SDS011;12280;51.362;6.694;2022-08-19T00:46:54;1.23;;;0.87;;
24107;SDS011;12280;51.362;6.694;2022-08-19T00:50:06;1.90;;;1.80;;
24107;SDS011;12280;51.362;6.694;2022-08-19T00:52:08;4.33;;;3.30;;
24107;SDS011;12280;51.362;6.694;2022-08-19T00:54:35;5.93;;;3.07;;
24107;SDS011;12280;51.362;6.694;2022-08-19T00:57:03;1.63;;;1.53;;
24107;SDS011;12280;51.362;6.694;2022-08-19T00:59:31;0.77;;;0.77;;
24107;SDS011;12280;51.362;6.694;2022-08-19T01:01:57;1.83;;;1.73;;
24107;SDS011;12280;51.362;6.694;2022-08-19T01:04:23;2.70;;;2.60;;
24107;SDS011;12280;51.362;6.694;2022-08-19T01:06:49;1.10;;;1.10;;
24107;SDS011;12280;51.362;6.694;2022-08-19T01:09:15;2.47;;;2.37;;
24107;SDS011;12280;51.362;6.694;2022-08-19T01:11:41;2.13;;;0.97;;
24107;SDS011;12280;51.362;6.694;2022-08-19T01:14:08;2.03;;;1.93;;
24107;SDS011;12280;51.362;6.694;2022-08-19T01:16:35;1.70;;;1.70;;
24107;SDS011;12280;51.362;6.694;2022-08-19T01:19:04;1.63;;;1.60;;
24107;SDS011;12280;51.362;6.694;2022-08-19T01:21:47;1.47;;;1.47;;
24107;SDS011;12280;51.362;6.694;2022-08-19T01:24:15;1.00;;;1.00;;
24107;SDS011;12280;51.362;6.694;2022-08-19T01:26:41;2.40;;;2.30;;
24107;SDS011;12280;51.362;6.694;2022-08-19T01:29:09;1.17;;;1.17;;
24107;SDS011;12280;51.362;6.694;2022-08-19T01:31:35;1.00;;;0.97;;
24107;SDS011;12280;51.362;6.694;2022-08-19T01:34:04;2.03;;;1.93;;
24107;SDS011;12280;51.362;6.694;2022-08-19T01:36:31;1.70;;;1.70;;
24107;SDS011;12280;51.362;6.694;2022-08-19T01:38:59;3.00;;;2.37;;
24107;SDS011;12280;51.362;6.694;2022-08-19T01:41:25;2.00;;;1.43;;
24107;SDS011;12280;51.362;6.694;2022-08-19T01:43:52;1.97;;;1.87;;
24107;SDS011;12280;51.362;6.694;2022-08-19T01:46:18;1.53;;;1.43;;
24107;SDS011;12280;51.362;6.694;2022-08-19T01:48:45;1.70;;;1.60;;
24107;SDS011;12280;51.362;6.694;2022-08-19T01:51:12;2.70;;;2.07;;
24107;SDS011;12280;51.362;6.694;2022-08-19T01:53:39;4.33;;;2.83;;
24107;SDS011;12280;51.362;6.694;2022-08-19T01:56:06;1.30;;;1.20;;
24107;SDS011;12280;51.362;6.694;2022-08-19T01:58:35;3.07;;;1.77;;
24107;SDS011;12280;51.362;6.694;2022-08-19T02:01:02;2.40;;;2.30;;
24107;SDS011;12280;51.362;6.694;2022-08-19T02:03:29;1.90;;;1.10;;
24107;SDS011;12280;51.362;6.694;2022-08-19T02:05:55;3.37;;;3.23;;
24107;SDS011;12280;51.362;6.694;2022-08-19T02:08:22;5.63;;;4.00;;
24107;SDS011;12280;51.362;6.694;2022-08-19T02:10:48;11.70;;;3.43;;
24107;SDS011;12280;51.362;6.694;2022-08-19T02:13:14;1.17;;;1.13;;
24107;SDS011;12280;51.362;6.694;2022-08-19T02:15:40;1.60;;;1.60;;
24107;SDS011;12280;51.362;6.694;2022-08-19T02:18:07;1.50;;;1.50;;
24107;SDS011;12280;51.362;6.694;2022-08-19T02:20:33;3.50;;;3.30;;
24107;SDS011;12280;51.362;6.694;2022-08-19T02:23:00;2.73;;;2.53;;
24107;SDS011;12280;51.362;6.694;2022-08-19T02:25:26;1.33;;;1.30;;
24107;SDS011;12280;51.362;6.694;2022-08-19T02:27:53;3.90;;;3.60;;
24107;SDS011;12280;51.362;6.694;2022-08-19T02:30:19;4.83;;;2.83;;
24107;SDS011;12280;51.362;6.694;2022-08-19T02:32:46;3.70;;;2.50;;
24107;SDS011;12280;51.362;6.694;2022-08-19T02:35:12;2.83;;;2.53;;
24107;SDS011;12280;51.362;6.694;2022-08-19T02:37:39;4.13;;;2.97;;
24107;SDS011;12280;51.362;6.694;2022-08-19T02:40:24;4.10;;;3.80;;
24107;SDS011;12280;51.362;6.694;2022-08-19T02:42:50;2.60;;;2.50;;
24107;SDS011;12280;51.362;6.694;2022-08-19T02:45:16;4.23;;;3.90;;
24107;SDS011;12280;51.362;6.694;2022-08-19T02:47:42;3.43;;;2.67;;
24107;SDS011;12280;51.362;6.694;2022-08-19T02:50:08;3.47;;;2.93;;
24107;SDS011;12280;51.362;6.694;2022-08-19T02:52:34;2.13;;;2.03;;
24107;SDS011;12280;51.362;6.694;2022-08-19T02:55:00;6.97;;;3.60;;
24107;SDS011;12280;51.362;6.694;2022-08-19T02:57:27;3.33;;;3.13;;
24107;SDS011;12280;51.362;6.694;2022-08-19T02:59:53;3.77;;;2.63;;
24107;SDS011;12280;51.362;6.694;2022-08-19T03:02:19;8.13;;;4.37;;
24107;SDS011;12280;51.362;6.694;2022-08-19T03:04:45;4.47;;;4.07;;
24107;SDS011;12280;51.362;6.694;2022-08-19T03:07:14;5.23;;;4.73;;
24107;SDS011;12280;51.362;6.694;2022-08-19T03:09:41;2.03;;;1.93;;
24107;SDS011;12280;51.362;6.694;2022-08-19T03:12:07;3.73;;;3.43;;
24107;SDS011;12280;51.362;6.694;2022-08-19T03:14:33;3.13;;;2.93;;
24107;SDS011;12280;51.362;6.694;2022-08-19T03:16:59;4.97;;;4.57;;
24107;SDS011;12280;51.362;6.694;2022-08-19T03:19:25;2.47;;;2.27;;
24107;SDS011;12280;51.362;6.694;2022-08-19T03:21:52;4.90;;;4.50;;
24107;SDS011;12280;51.362;6.694;2022-08-19T03:24:18;5.40;;;4.57;;
24107;SDS011;12280;51.362;6.694;2022-08-19T03:26:48;6.23;;;5.80;;
24107;SDS011;12280;51.362;6.694;2022-08-19T03:29:15;6.10;;;5.00;;
24107;SDS011;12280;51.362;6.694;2022-08-19T03:31:42;4.23;;;3.33;;
24107;SDS011;12280;51.362;6.694;2022-08-19T03:34:09;5.23;;;3.57;;
24107;SDS011;12280;51.362;6.694;2022-08-19T03:36:36;11.30;;;7.50;;
24107;SDS011;12280;51.362;6.694;2022-08-19T03:39:03;4.30;;;3.97;;
24107;SDS011;12280;51.362;6.694;2022-08-19T03:41:31;3.80;;;3.60;;
24107;SDS011;12280;51.362;6.694;2022-08-19T03:43:57;4.10;;;3.80;;
24107;SDS011;12280;51.362;6.694;2022-08-19T03:46:28;9.33;;;3.70;;
24107;SDS011;12280;51.362;6.694;2022-08-19T03:48:55;5.60;;;5.20;;
24107;SDS011;12280;51.362;6.694;2022-08-19T03:51:28;3.47;;;3.27;;
24107;SDS011;12280;51.362;6.694;2022-08-19T03:53:55;4.23;;;4.00;;
24107;SDS011;12280;51.362;6.694;2022-08-19T03:56:21;7.93;;;6.47;;
24107;SDS011;12280;51.362;6.694;2022-08-19T03:58:50;5.27;;;4.87;;
24107;SDS011;12280;51.362;6.694;2022-08-19T04:01:17;7.43;;;5.97;;
24107;SDS011;12280;51.362;6.694;2022-08-19T04:03:44;5.77;;;5.23;;
24107;SDS011;12280;51.362;6.694;2022-08-19T04:06:15;6.27;;;4.83;;
24107;SDS011;12280;51.362;6.694;2022-08-19T04:08:42;7.90;;;5.83;;
24107;SDS011;12280;51.362;6.694;2022-08-19T04:11:09;10.47;;;7.90;;
24107;SDS011;12280;51.362;6.694;2022-08-19T04:13:36;5.20;;;4.53;;
24107;SDS011;12280;51.362;6.694;2022-08-19T04:16:03;6.90;;;4.70;;
24107;SDS011;12280;51.362;6.694;2022-08-19T04:18:29;9.33;;;6.60;;
24107;SDS011;12280;51.362;6.694;2022-08-19T04:20:56;6.33;;;4.87;;
24107;SDS011;12280;51.362;6.694;2022-08-19T04:23:22;5.60;;;5.20;;
24107;SDS011;12280;51.362;6.694;2022-08-19T04:25:48;4.40;;;3.57;;
24107;SDS011;12280;51.362;6.694;2022-08-19T04:28:14;7.97;;;6.33;;
24107;SDS011;12280;51.362;6.694;2022-08-19T04:30:44;4.50;;;4.23;;
24107;SDS011;12280;51.362;6.694;2022-08-19T04:33:12;6.03;;;5.53;;
24107;SDS011;12280;51.362;6.694;2022-08-19T04:35:41;5.93;;;5.40;;
24107;SDS011;12280;51.362;6.694;2022-08-19T04:38:07;11.60;;;8.23;;
24107;SDS011;12280;51.362;6.694;2022-08-19T04:40:34;4.23;;;3.93;;
24107;SDS011;12280;51.362;6.694;2022-08-19T04:43:19;9.33;;;4.83;;
24107;SDS011;12280;51.362;6.694;2022-08-19T04:45:45;5.63;;;5.30;;
24107;SDS011;12280;51.362;6.694;2022-08-19T04:48:11;6.97;;;6.37;;
24107;SDS011;12280;51.362;6.694;2022-08-19T04:50:42;6.77;;;4.63;;
24107;SDS011;12280;51.362;6.694;2022-08-19T04:53:08;7.03;;;6.03;;
24107;SDS011;12280;51.362;6.694;2022-08-19T04:55:37;5.93;;;5.53;;
24107;SDS011;12280;51.362;6.694;2022-08-19T04:58:04;26.17;;;12.00;;
24107;SDS011;12280;51.362;6.694;2022-08-19T05:00:30;8.47;;;7.67;;
24107;SDS011;12280;51.362;6.694;2022-08-19T05:02:56;7.43;;;6.83;;
24107;SDS011;12280;51.362;6.694;2022-08-19T05:05:22;13.43;;;9.10;;
24107;SDS011;12280;51.362;6.694;2022-08-19T05:07:48;5.53;;;5.00;;
24107;SDS011;12280;51.362;6.694;2022-08-19T05:10:14;9.30;;;8.40;;
24107;SDS011;12280;51.362;6.694;2022-08-19T05:12:40;7.90;;;6.50;;
24107;SDS011;12280;51.362;6.694;2022-08-19T05:15:06;8.23;;;7.43;;
24107;SDS011;12280;51.362;6.694;2022-08-19T05:17:33;12.20;;;8.17;;
24107;SDS011;12280;51.362;6.694;2022-08-19T05:19:59;7.63;;;6.97;;
24107;SDS011;12280;51.362;6.694;2022-08-19T05:22:45;11.17;;;9.80;;
24107;SDS011;12280;51.362;6.694;2022-08-19T05:25:13;10.53;;;8.87;;
24107;SDS011;12280;51.362;6.694;2022-08-19T05:27:40;4.77;;;4.53;;
24107;SDS011;12280;51.362;6.694;2022-08-19T05:30:06;20.77;;;11.53;;
24107;SDS011;12280;51.362;6.694;2022-08-19T05:32:32;10.93;;;9.77;;
24107;SDS011;12280;51.362;6.694;2022-08-19T05:34:58;8.67;;;7.87;;
24107;SDS011;12280;51.362;6.694;2022-08-19T05:37:24;10.03;;;9.10;;
24107;SDS011;12280;51.362;6.694;2022-08-19T05:39:52;4.67;;;4.37;;
24107;SDS011;12280;51.362;6.694;2022-08-19T05:42:19;9.03;;;8.10;;
24107;SDS011;12280;51.362;6.694;2022-08-19T05:44:47;13.17;;;10.83;;
24107;SDS011;12280;51.362;6.694;2022-08-19T05:47:14;11.23;;;9.43;;
24107;SDS011;12280;51.362;6.694;2022-08-19T05:49:40;9.60;;;8.97;;
24107;SDS011;12280;51.362;6.694;2022-08-19T05:52:08;25.40;;;9.20;;
24107;SDS011;12280;51.362;6.694;2022-08-19T05:54:36;11.50;;;10.70;;
24107;SDS011;12280;51.362;6.694;2022-08-19T05:57:04;10.30;;;9.43;;
24107;SDS011;12280;51.362;6.694;2022-08-19T05:59:31;14.43;;;8.75;;
24107;SDS011;12280;51.362;6.694;2022-08-19T06:01:57;12.05;;;10.80;;
24107;SDS011;12280;51.362;6.694;2022-08-19T06:04:24;14.57;;;11.83;;
24107;SDS011;12280;51.362;6.694;2022-08-19T06:06:52;18.35;;;11.60;;
24107;SDS011;12280;51.362;6.694;2022-08-19T06:09:18;14.77;;;11.43;;
24107;SDS011;12280;51.362;6.694;2022-08-19T06:11:49;17.87;;;11.67;;
24107;SDS011;12280;51.362;6.694;2022-08-19T06:14:19;10.05;;;9.02;;
24107;SDS011;12280;51.362;6.694;2022-08-19T06:16:45;15.13;;;13.43;;
24107;SDS011;12280;51.362;6.694;2022-08-19T06:19:13;10.25;;;9.40;;
24107;SDS011;12280;51.362;6.694;2022-08-19T06:21:41;15.27;;;12.18;;
24107;SDS011;12280;51.362;6.694;2022-08-19T06:24:09;14.73;;;11.68;;
24107;SDS011;12280;51.362;6.694;2022-08-19T06:26:36;10.77;;;7.97;;
24107;SDS011;12280;51.362;6.694;2022-08-19T06:29:03;8.30;;;6.70;;
24107;SDS011;12280;51.362;6.694;2022-08-19T06:31:31;8.07;;;5.05;;
24107;SDS011;12280;51.362;6.694;2022-08-19T06:33:58;9.52;;;8.45;;
24107;SDS011;12280;51.362;6.694;2022-08-19T06:36:26;9.43;;;8.50;;
24107;SDS011;12280;51.362;6.694;2022-08-19T06:38:54;12.18;;;10.95;;
24107;SDS011;12280;51.362;6.694;2022-08-19T06:41:22;14.45;;;9.57;;
24107;SDS011;12280;51.362;6.694;2022-08-19T06:43:48;19.35;;;8.10;;
24107;SDS011;12280;51.362;6.694;2022-08-19T06:46:15;23.50;;;9.30;;
24107;SDS011;12280;51.362;6.694;2022-08-19T06:48:43;11.88;;;9.38;;
24107;SDS011;12280;51.362;6.694;2022-08-19T06:51:09;21.70;;;8.10;;
24107;SDS011;12280;51.362;6.694;2022-08-19T06:53:36;8.85;;;8.05;;
24107;SDS011;12280;51.362;6.694;2022-08-19T06:56:04;13.77;;;8.25;;
24107;SDS011;12280;51.362;6.694;2022-08-19T06:58:30;6.32;;;5.90;;
24107;SDS011;12280;51.362;6.694;2022-08-19T07:01:00;6.95;;;6.10;;
24107;SDS011;12280;51.362;6.694;2022-08-19T07:03:28;9.63;;;6.40;;
24107;SDS011;12280;51.362;6.694;2022-08-19T07:05:55;10.05;;;7.38;;
24107;SDS011;12280;51.362;6.694;2022-08-19T07:08:21;8.98;;;5.65;;
24107;SDS011;12280;51.362;6.694;2022-08-19T07:10:47;14.57;;;8.20;;
24107;SDS011;12280;51.362;6.694;2022-08-19T07:13:14;5.80;;;4.75;;
24107;SDS011;12280;51.362;6.694;2022-08-19T07:15:40;7.13;;;6.45;;
24107;SDS011;12280;51.362;6.694;2022-08-19T07:18:06;7.45;;;5.20;;
24107;SDS011;12280;51.362;6.694;2022-08-19T07:20:32;8.13;;;7.18;;
24107;SDS011;12280;51.362;6.694;2022-08-19T07:22:58;7.90;;;5.55;;
24107;SDS011;12280;51.362;6.694;2022-08-19T07:25:24;9.02;;;7.25;;
24107;SDS011;12280;51.362;6.694;2022-08-19T07:27:50;4.35;;;3.25;;
24107;SDS011;12280;51.362;6.694;2022-08-19T07:30:16;15.85;;;7.85;;
24107;SDS011;12280;51.362;6.694;2022-08-19T07:32:42;12.70;;;7.22;;
24107;SDS011;12280;51.362;6.694;2022-08-19T07:35:09;4.85;;;3.88;;
24107;SDS011;12280;51.362;6.694;2022-08-19T07:37:35;4.25;;;3.45;;
24107;SDS011;12280;51.362;6.694;2022-08-19T07:40:06;5.55;;;5.05;;
24107;SDS011;12280;51.362;6.694;2022-08-19T07:42:32;5.15;;;4.75;;
24107;SDS011;12280;51.362;6.694;2022-08-19T07:44:58;8.48;;;4.15;;
24107;SDS011;12280;51.362;6.694;2022-08-19T07:47:24;3.70;;;3.47;;
24107;SDS011;12280;51.362;6.694;2022-08-19T07:49:51;7.18;;;5.55;;
24107;SDS011;12280;51.362;6.694;2022-08-19T07:52:17;11.10;;;7.65;;
24107;SDS011;12280;51.362;6.694;2022-08-19T07:54:43;9.88;;;4.93;;
24107;SDS011;12280;51.362;6.694;2022-08-19T07:57:09;5.95;;;5.65;;
24107;SDS011;12280;51.362;6.694;2022-08-19T07:59:35;3.05;;;2.78;;
24107;SDS011;12280;51.362;6.694;2022-08-19T08:02:02;9.65;;;8.70;;
24107;SDS011;12280;51.362;6.694;2022-08-19T08:04:29;5.18;;;4.80;;
24107;SDS011;12280;51.362;6.694;2022-08-19T08:07:13;9.93;;;4.18;;
24107;SDS011;12280;51.362;6.694;2022-08-19T08:09:58;7.07;;;5.32;;
24107;SDS011;12280;51.362;6.694;2022-08-19T08:12:27;4.38;;;3.45;;
24107;SDS011;12280;51.362;6.694;2022-08-19T08:14:54;6.20;;;5.68;;
24107;SDS011;12280;51.362;6.694;2022-08-19T08:17:21;7.90;;;5.47;;
24107;SDS011;12280;51.362;6.694;2022-08-19T08:19:47;6.85;;;6.22;;
24107;SDS011;12280;51.362;6.694;2022-08-19T08:22:15;7.30;;;4.82;;
24107;SDS011;12280;51.362;6.694;2022-08-19T08:25:04;4.32;;;4.03;;
24107;SDS011;12280;51.362;6.694;2022-08-19T08:27:31;8.65;;;8.02;;
24107;SDS011;12280;51.362;6.694;2022-08-19T08:30:02;15.45;;;6.72;;
24107;SDS011;12280;51.362;6.694;2022-08-19T08:32:29;11.00;;;7.60;;
24107;SDS011;12280;51.362;6.694;2022-08-19T08:34:55;9.50;;;8.45;;
24107;SDS011;12280;51.362;6.694;2022-08-19T08:37:21;7.25;;;5.53;;
24107;SDS011;12280;51.362;6.694;2022-08-19T08:39:47;5.95;;;5.38;;
24107;SDS011;12280;51.362;6.694;2022-08-19T08:42:21;8.73;;;7.25;;
24107;SDS011;12280;51.362;6.694;2022-08-19T08:47:20;6.70;;;3.42;;
24107;SDS011;12280;51.362;6.694;2022-08-19T08:50:09;4.90;;;3.78;;
24107;SDS011;12280;51.362;6.694;2022-08-19T08:52:37;4.90;;;3.83;;
24107;SDS011;12280;51.362;6.694;2022-08-19T08:55:09;4.82;;;4.47;;
24107;SDS011;12280;51.362;6.694;2022-08-19T08:58:19;9.95;;;4.97;;
24107;SDS011;12280;51.362;6.694;2022-08-19T09:00:39;7.07;;;6.30;;
24107;SDS011;12280;51.362;6.694;2022-08-19T09:03:08;6.22;;;5.60;;
24107;SDS011;12280;51.362;6.694;2022-08-19T09:08:07;9.50;;;6.25;;
24107;SDS011;12280;51.362;6.694;2022-08-19T09:10:44;6.63;;;6.07;;
24107;SDS011;12280;51.362;6.694;2022-08-19T09:16:03;4.93;;;4.50;;
24107;SDS011;12280;51.362;6.694;2022-08-19T09:18:48;6.68;;;4.70;;
24107;SDS011;12280;51.362;6.694;2022-08-19T09:21:18;9.13;;;8.27;;
24107;SDS011;12280;51.362;6.694;2022-08-19T09:23:45;6.35;;;4.85;;
24107;SDS011;12280;51.362;6.694;2022-08-19T09:26:12;6.38;;;5.63;;
24107;SDS011;12280;51.362;6.694;2022-08-19T09:28:39;5.97;;;4.50;;
24107;SDS011;12280;51.362;6.694;2022-08-19T09:31:09;6.03;;;3.92;;
24107;SDS011;12280;51.362;6.694;2022-08-19T09:36:11;5.30;;;4.60;;
24107;SDS011;12280;51.362;6.694;2022-08-19T09:38:37;7.68;;;5.28;;
24107;SDS011;12280;51.362;6.694;2022-08-19T09:41:06;6.38;;;4.70;;
24107;SDS011;12280;51.362;6.694;2022-08-19T09:43:32;6.05;;;4.70;;
24107;SDS011;12280;51.362;6.694;2022-08-19T09:46:02;2.63;;;2.42;;
24107;SDS011;12280;51.362;6.694;2022-08-19T09:48:30;4.03;;;2.90;;
24107;SDS011;12280;51.362;6.694;2022-08-19T09:51:02;3.00;;;2.80;;
24107;SDS011;12280;51.362;6.694;2022-08-19T09:53:28;12.60;;;5.95;;
24107;SDS011;12280;51.362;6.694;2022-08-19T09:55:54;4.97;;;4.60;;
24107;SDS011;12280;51.362;6.694;2022-08-19T09:58:20;3.65;;;3.35;;
24107;SDS011;12280;51.362;6.694;2022-08-19T10:00:51;4.35;;;4.10;;
24107;SDS011;12280;51.362;6.694;2022-08-19T10:03:18;2.90;;;2.70;;
24107;SDS011;12280;51.362;6.694;2022-08-19T10:05:44;3.13;;;2.88;;
24107;SDS011;12280;51.362;6.694;2022-08-19T10:08:13;6.00;;;3.22;;
24107;SDS011;12280;51.362;6.694;2022-08-19T10:10:40;3.67;;;3.45;;
24107;SDS011;12280;51.362;6.694;2022-08-19T10:13:08;3.20;;;2.95;;
24107;SDS011;12280;51.362;6.694;2022-08-19T10:15:34;4.20;;;3.70;;
24107;SDS011;12280;51.362;6.694;2022-08-19T10:18:00;2.03;;;1.88;;
24107;SDS011;12280;51.362;6.694;2022-08-19T10:20:26;2.40;;;2.17;;
24107;SDS011;12280;51.362;6.694;2022-08-19T10:22:54;6.03;;;4.85;;
24107;SDS011;12280;51.362;6.694;2022-08-19T10:25:20;3.53;;;2.63;;
24107;SDS011;12280;51.362;6.694;2022-08-19T10:27:46;6.00;;;3.70;;
24107;SDS011;12280;51.362;6.694;2022-08-19T10:30:12;2.63;;;2.42;;
24107;SDS011;12280;51.362;6.694;2022-08-19T10:32:38;6.57;;;2.53;;
24107;SDS011;12280;51.362;6.694;2022-08-19T10:35:04;4.82;;;4.32;;
24107;SDS011;12280;51.362;6.694;2022-08-19T10:37:33;3.30;;;2.97;;
24107;SDS011;12280;51.362;6.694;2022-08-19T10:39:59;4.38;;;3.05;;
24107;SDS011;12280;51.362;6.694;2022-08-19T10:42:26;3.55;;;3.10;;
24107;SDS011;12280;51.362;6.694;2022-08-19T10:44:52;3.30;;;2.97;;
24107;SDS011;12280;51.362;6.694;2022-08-19T10:47:18;2.67;;;1.98;;
24107;SDS011;12280;51.362;6.694;2022-08-19T10:49:45;3.53;;;3.05;;
24107;SDS011;12280;51.362;6.694;2022-08-19T10:52:33;3.15;;;2.70;;
24107;SDS011;12280;51.362;6.694;2022-08-19T10:55:00;5.18;;;3.45;;
24107;SDS011;12280;51.362;6.694;2022-08-19T10:57:44;2.45;;;1.55;;
24107;SDS011;12280;51.362;6.694;2022-08-19T11:00:10;3.92;;;3.55;;
24107;SDS011;12280;51.362;6.694;2022-08-19T11:02:36;4.13;;;2.85;;
24107;SDS011;12280;51.362;6.694;2022-08-19T11:05:03;2.47;;;1.92;;
24107;SDS011;12280;51.362;6.694;2022-08-19T11:07:29;2.25;;;2.15;;
24107;SDS011;12280;51.362;6.694;2022-08-19T11:09:55;2.38;;;2.20;;
24107;SDS011;12280;51.362;6.694;2022-08-19T11:12:21;1.63;;;1.52;;
24107;SDS011;12280;51.362;6.694;2022-08-19T11:14:47;3.47;;;2.95;;
24107;SDS011;12280;51.362;6.694;2022-08-19T11:17:14;2.63;;;2.40;;
24107;SDS011;12280;51.362;6.694;2022-08-19T11:19:41;3.08;;;2.75;;
24107;SDS011;12280;51.362;6.694;2022-08-19T11:22:08;2.60;;;2.45;;
24107;SDS011;12280;51.362;6.694;2022-08-19T11:24:40;1.63;;;1.63;;
24107;SDS011;12280;51.362;6.694;2022-08-19T11:27:07;1.83;;;1.45;;
24107;SDS011;12280;51.362;6.694;2022-08-19T11:29:34;1.58;;;1.52;;
24107;SDS011;12280;51.362;6.694;2022-08-19T11:32:03;5.93;;;4.07;;
24107;SDS011;12280;51.362;6.694;2022-08-19T11:34:29;3.53;;;2.20;;
24107;SDS011;12280;51.362;6.694;2022-08-19T11:36:56;2.05;;;1.67;;
24107;SDS011;12280;51.362;6.694;2022-08-19T11:39:24;4.10;;;3.80;;
24107;SDS011;12280;51.362;6.694;2022-08-19T11:41:50;1.88;;;1.42;;
24107;SDS011;12280;51.362;6.694;2022-08-19T11:44:16;13.93;;;2.03;;
24107;SDS011;12280;51.362;6.694;2022-08-19T11:46:42;5.53;;;2.33;;
24107;SDS011;12280;51.362;6.694;2022-08-19T11:49:11;1.88;;;1.77;;
24107;SDS011;12280;51.362;6.694;2022-08-19T11:51:37;3.13;;;1.45;;
24107;SDS011;12280;51.362;6.694;2022-08-19T11:54:04;4.78;;;3.35;;
24107;SDS011;12280;51.362;6.694;2022-08-19T11:56:31;2.58;;;2.38;;
24107;SDS011;12280;51.362;6.694;2022-08-19T11:58:57;0.73;;;0.73;;
24107;SDS011;12280;51.362;6.694;2022-08-19T12:01:25;1.00;;;1.00;;
24107;SDS011;12280;51.362;6.694;2022-08-19T12:03:52;0.43;;;0.43;;
24107;SDS011;12280;51.362;6.694;2022-08-19T12:06:20;2.67;;;2.05;;
24107;SDS011;12280;51.362;6.694;2022-08-19T12:08:48;2.35;;;1.65;;
24107;SDS011;12280;51.362;6.694;2022-08-19T12:11:14;1.13;;;1.13;;
24107;SDS011;12280;51.362;6.694;2022-08-19T12:13:41;1.63;;;1.63;;
24107;SDS011;12280;51.362;6.694;2022-08-19T12:16:20;1.90;;;1.35;;
24107;SDS011;12280;51.362;6.694;2022-08-19T12:18:46;1.25;;;1.15;;
24107;SDS011;12280;51.362;6.694;2022-08-19T12:21:13;1.02;;;0.93;;
24107;SDS011;12280;51.362;6.694;2022-08-19T12:23:40;0.85;;;0.85;;
24107;SDS011;12280;51.362;6.694;2022-08-19T12:26:06;2.13;;;1.98;;
24107;SDS011;12280;51.362;6.694;2022-08-19T12:28:32;1.55;;;1.45;;
24107;SDS011;12280;51.362;6.694;2022-08-19T12:30:58;2.08;;;1.88;;
24107;SDS011;12280;51.362;6.694;2022-08-19T12:33:25;2.28;;;1.52;;
24107;SDS011;12280;51.362;6.694;2022-08-19T12:35:53;2.58;;;2.22;;
24107;SDS011;12280;51.362;6.694;2022-08-19T12:38:19;1.70;;;1.60;;
24107;SDS011;12280;51.362;6.694;2022-08-19T12:40:48;1.98;;;1.88;;
24107;SDS011;12280;51.362;6.694;2022-08-19T12:43:16;1.45;;;1.35;;
24107;SDS011;12280;51.362;6.694;2022-08-19T12:45:44;1.42;;;1.42;;
24107;SDS011;12280;51.362;6.694;2022-08-19T12:48:10;1.00;;;1.00;;
24107;SDS011;12280;51.362;6.694;2022-08-19T12:50:39;1.80;;;1.15;;
24107;SDS011;12280;51.362;6.694;2022-08-19T12:53:05;0.98;;;0.70;;
24107;SDS011;12280;51.362;6.694;2022-08-19T12:55:31;1.67;;;1.27;;
24107;SDS011;12280;51.362;6.694;2022-08-19T12:57:57;0.73;;;0.70;;
24107;SDS011;12280;51.362;6.694;2022-08-19T13:00:23;0.57;;;0.57;;
24107;SDS011;12280;51.362;6.694;2022-08-19T13:02:51;1.48;;;0.57;;
24107;SDS011;12280;51.362;6.694;2022-08-19T13:05:18;0.63;;;0.63;;
24107;SDS011;12280;51.362;6.694;2022-08-19T13:07:45;1.70;;;1.70;;
24107;SDS011;12280;51.362;6.694;2022-08-19T13:10:12;2.72;;;2.53;;
24107;SDS011;12280;51.362;6.694;2022-08-19T13:12:40;0.70;;;0.70;;
24107;SDS011;12280;51.362;6.694;2022-08-19T13:15:06;0.88;;;0.73;;
24107;SDS011;12280;51.362;6.694;2022-08-19T13:17:33;4.38;;;1.65;;
24107;SDS011;12280;51.362;6.694;2022-08-19T13:19:59;1.55;;;1.40;;
24107;SDS011;12280;51.362;6.694;2022-08-19T13:22:25;1.10;;;0.70;;
24107;SDS011;12280;51.362;6.694;2022-08-19T13:24:52;1.25;;;1.25;;
24107;SDS011;12280;51.362;6.694;2022-08-19T13:27:18;1.45;;;1.35;;
24107;SDS011;12280;51.362;6.694;2022-08-19T13:29:44;1.02;;;1.02;;
24107;SDS011;12280;51.362;6.694;2022-08-19T13:32:29;0.77;;;0.77;;
24107;SDS011;12280;51.362;6.694;2022-08-19T13:35:14;0.80;;;0.57;;
24107;SDS011;12280;51.362;6.694;2022-08-19T13:37:40;1.38;;;1.30;;
24107;SDS011;12280;51.362;6.694;2022-08-19T13:40:15;1.13;;;1.02;;
24107;SDS011;12280;51.362;6.694;2022-08-19T13:42:43;8.65;;;2.83;;
24107;SDS011;12280;51.362;6.694;2022-08-19T13:45:12;0.88;;;0.88;;
24107;SDS011;12280;51.362;6.694;2022-08-19T13:47:39;1.35;;;1.25;;
24107;SDS011;12280;51.362;6.694;2022-08-19T13:50:08;1.50;;;1.40;;
24107;SDS011;12280;51.362;6.694;2022-08-19T13:52:35;1.20;;;1.20;;
24107;SDS011;12280;51.362;6.694;2022-08-19T13:55:01;1.13;;;1.13;;
24107;SDS011;12280;51.362;6.694;2022-08-19T13:57:28;0.65;;;0.65;;
24107;SDS011;12280;51.362;6.694;2022-08-19T13:59:54;2.25;;;2.15;;
24107;SDS011;12280;51.362;6.694;2022-08-19T14:02:20;8.85;;;2.08;;
24107;SDS011;12280;51.362;6.694;2022-08-19T14:04:46;0.65;;;0.57;;
24107;SDS011;12280;51.362;6.694;2022-08-19T14:07:12;0.47;;;0.47;;
24107;SDS011;12280;51.362;6.694;2022-08-19T14:09:39;1.17;;;0.77;;
24107;SDS011;12280;51.362;6.694;2022-08-19T14:12:05;0.80;;;0.80;;
24107;SDS011;12280;51.362;6.694;2022-08-19T14:14:32;0.38;;;0.38;;
24107;SDS011;12280;51.362;6.694;2022-08-19T14:17:01;2.13;;;1.85;;
24107;SDS011;12280;51.362;6.694;2022-08-19T14:19:30;1.33;;;1.23;;
24107;SDS011;12280;51.362;6.694;2022-08-19T14:21:56;1.25;;;1.13;;
24107;SDS011;12280;51.362;6.694;2022-08-19T14:24:22;2.33;;;2.13;;
24107;SDS011;12280;51.362;6.694;2022-08-19T14:26:49;0.40;;;0.40;;
24107;SDS011;12280;51.362;6.694;2022-08-19T14:29:15;1.15;;;0.85;;
24107;SDS011;12280;51.362;6.694;2022-08-19T14:31:41;0.70;;;0.70;;
24107;SDS011;12280;51.362;6.694;2022-08-19T14:34:09;1.33;;;1.33;;
24107;SDS011;12280;51.362;6.694;2022-08-19T14:36:35;1.75;;;0.63;;
24107;SDS011;12280;51.362;6.694;2022-08-19T14:39:01;0.22;;;0.22;;
24107;SDS011;12280;51.362;6.694;2022-08-19T14:41:27;0.50;;;0.50;;
24107;SDS011;12280;51.362;6.694;2022-08-19T14:43:55;0.65;;;0.57;;
24107;SDS011;12280;51.362;6.694;2022-08-19T14:46:22;0.38;;;0.38;;
24107;SDS011;12280;51.362;6.694;2022-08-19T14:48:49;0.57;;;0.57;;
24107;SDS011;12280;51.362;6.694;2022-08-19T14:51:15;1.17;;;1.13;;
24107;SDS011;12280;51.362;6.694;2022-08-19T14:53:41;0.47;;;0.47;;
24107;SDS011;12280;51.362;6.694;2022-08-19T14:56:13;1.10;;;0.65;;
24107;SDS011;12280;51.362;6.694;2022-08-19T14:58:39;1.70;;;1.60;;